Time;durP1;ratioP1;P1;durP2;ratioP2;P2;SDS_P1;SDS_P2;PMS_P1;PMS_P2;Temp;Humidity;BMP_temperature;BMP_pressure;BME280_temperature;BME280_humidity;BME280_pressure;Samples;Min_cycle;Max_cycle;Signal;HPM_P1;HPM_P2
2022/03/13 00:00:36;;;;;;;19.40;15.97;;;7.90;99.90;;;;;;5115769;28;20196;-67
2022/03/13 00:03:03;;;;;;;22.13;15.73;;;7.90;99.90;;;;;;5118287;27;20184;-67
2022/03/13 00:05:29;;;;;;;19.73;15.07;;;7.90;99.90;;;;;;5125918;27;20208;-67
2022/03/13 00:07:56;;;;;;;19.50;16.33;;;7.80;99.90;;;;;;5116635;27;20172;-67
2022/03/13 00:10:27;;;;;;;20.47;14.43;;;7.80;99.90;;;;;;5117309;27;20219;-66
2022/03/13 00:12:54;;;;;;;18.57;15.07;;;7.90;99.90;;;;;;5135020;27;20175;-67
2022/03/13 00:15:31;;;;;;;18.67;16.50;;;7.90;99.90;;;;;;5132457;27;20196;-67
2022/03/13 00:17:59;;;;;;;19.57;16.07;;;8.00;99.90;;;;;;5135000;27;20243;-67
2022/03/13 00:20:27;;;;;;;21.83;16.33;;;8.00;99.90;;;;;;5134713;27;20186;-67
2022/03/13 00:22:57;;;;;;;17.37;15.20;;;7.90;99.90;;;;;;5135406;27;20192;-67
2022/03/13 00:25:23;;;;;;;18.77;16.73;;;7.90;99.90;;;;;;5131343;27;20582;-67
2022/03/13 00:27:49;;;;;;;17.73;15.80;;;7.90;99.90;;;;;;5133053;27;20176;-67
2022/03/13 00:30:16;;;;;;;18.37;16.40;;;7.90;99.90;;;;;;5131650;27;20234;-67
2022/03/13 00:32:42;;;;;;;17.70;15.17;;;7.80;99.90;;;;;;5135360;27;20165;-67
2022/03/13 00:35:08;;;;;;;17.87;15.97;;;7.70;99.90;;;;;;5116478;27;20173;-67
2022/03/13 00:37:33;;;;;;;16.67;14.93;;;7.70;99.90;;;;;;5112467;27;20670;-66
2022/03/13 00:40:00;;;;;;;17.90;15.60;;;7.70;99.90;;;;;;5115828;27;20204;-66
2022/03/13 00:42:26;;;;;;;17.50;15.67;;;7.70;99.90;;;;;;5113228;28;20626;-67
2022/03/13 00:44:52;;;;;;;19.33;16.30;;;7.60;99.90;;;;;;5125878;27;20207;-67
2022/03/13 00:47:19;;;;;;;20.63;15.63;;;7.60;99.90;;;;;;5133324;27;20214;-67
2022/03/13 00:49:46;;;;;;;19.23;15.50;;;7.60;99.90;;;;;;5131405;27;20659;-67
2022/03/13 00:52:11;;;;;;;17.80;15.37;;;7.50;99.90;;;;;;5133122;27;20176;-67
2022/03/13 00:54:37;;;;;;;16.87;14.97;;;7.50;99.90;;;;;;5123087;27;20613;-67
2022/03/13 00:57:03;;;;;;;23.67;18.10;;;7.40;99.90;;;;;;5112929;28;20228;-67
2022/03/13 00:59:28;;;;;;;15.90;14.20;;;7.30;99.90;;;;;;5113246;27;20204;-67
2022/03/13 01:01:54;;;;;;;17.27;15.07;;;7.20;99.90;;;;;;5112325;27;20652;-67
2022/03/13 01:04:19;;;;;;;16.57;14.40;;;7.20;99.90;;;;;;5117823;27;20203;-67
2022/03/13 01:06:46;;;;;;;17.07;14.57;;;7.10;99.90;;;;;;5132173;27;20235;-67
2022/03/13 01:09:12;;;;;;;18.33;16.30;;;7.00;99.90;;;;;;5112084;28;20181;-67
2022/03/13 01:11:38;;;;;;;17.13;14.67;;;6.90;99.90;;;;;;5112776;27;20172;-67
2022/03/13 01:14:05;;;;;;;16.63;14.83;;;6.90;99.90;;;;;;5133143;27;20182;-67
2022/03/13 01:16:36;;;;;;;21.27;15.77;;;6.80;99.90;;;;;;5114445;27;20204;-67
2022/03/13 01:19:03;;;;;;;18.13;15.30;;;6.80;99.90;;;;;;5113886;28;20184;-67
2022/03/13 01:21:32;;;;;;;19.87;15.23;;;6.70;99.90;;;;;;5114242;27;20613;-67
2022/03/13 01:23:58;;;;;;;18.37;14.27;;;6.70;99.90;;;;;;5113456;28;20529;-67
2022/03/13 01:26:23;;;;;;;19.50;15.40;;;6.60;99.90;;;;;;5127859;27;20215;-67
2022/03/13 01:28:53;;;;;;;20.97;14.73;;;6.60;99.90;;;;;;5134299;27;20213;-67
2022/03/13 01:31:22;;;;;;;16.87;14.90;;;6.60;99.90;;;;;;5119302;27;20217;-67
2022/03/13 01:33:48;;;;;;;18.23;15.13;;;6.50;99.90;;;;;;5113778;28;20177;-67
2022/03/13 01:36:14;;;;;;;18.03;15.37;;;6.50;99.90;;;;;;5128182;27;20238;-67
2022/03/13 01:38:40;;;;;;;18.07;15.67;;;6.40;99.90;;;;;;5133594;27;20211;-67
2022/03/13 01:41:07;;;;;;;17.80;15.27;;;6.40;99.90;;;;;;5120408;27;20181;-67
2022/03/13 01:43:32;;;;;;;15.60;14.10;;;6.30;99.90;;;;;;5112049;28;20214;-67
2022/03/13 01:45:59;;;;;;;18.63;14.73;;;6.20;99.90;;;;;;5118814;27;20813;-67
2022/03/13 01:48:26;;;;;;;17.80;14.50;;;6.20;99.90;;;;;;5117520;27;20177;-67
2022/03/13 01:50:52;;;;;;;16.23;14.53;;;6.10;99.90;;;;;;5113186;28;20161;-67
2022/03/13 01:53:20;;;;;;;18.30;14.37;;;6.10;99.90;;;;;;5121484;27;20179;-67
2022/03/13 01:55:46;;;;;;;16.67;14.73;;;6.00;99.90;;;;;;5133424;27;20222;-67
2022/03/13 01:58:12;;;;;;;15.53;13.93;;;6.00;99.90;;;;;;5130582;27;20180;-67
2022/03/13 02:00:38;;;;;;;15.60;13.57;;;6.00;99.90;;;;;;5132244;27;20537;-67
2022/03/13 02:03:04;;;;;;;16.10;14.20;;;5.90;99.90;;;;;;5126943;27;20277;-67
2022/03/13 02:05:35;;;;;;;16.90;13.40;;;5.90;99.90;;;;;;5112378;28;20216;-67
2022/03/13 02:08:19;;;;;;;24.87;18.23;;;5.90;99.90;;;;;;5118468;27;20191;-67
2022/03/13 02:10:45;;;;;;;20.50;14.03;;;5.90;99.90;;;;;;5133475;27;20633;-67
2022/03/13 02:13:15;;;;;;;16.20;13.40;;;5.90;99.90;;;;;;5130807;27;20225;-67
2022/03/13 02:15:41;;;;;;;21.90;15.33;;;5.80;99.90;;;;;;5130691;27;20203;-67
2022/03/13 02:18:07;;;;;;;17.90;14.70;;;5.80;99.90;;;;;;5129767;27;20233;-67
2022/03/13 02:20:43;;;;;;;18.87;15.23;;;5.70;99.90;;;;;;5112650;28;20263;-67
2022/03/13 02:23:19;;;;;;;19.97;14.93;;;5.70;99.90;;;;;;5112361;28;20247;-67
2022/03/13 02:25:52;;;;;;;18.30;14.20;;;5.70;99.90;;;;;;5112337;28;20211;-67
2022/03/13 02:28:23;;;;;;;17.77;15.27;;;5.70;99.90;;;;;;5112769;27;20182;-67
2022/03/13 02:30:50;;;;;;;15.80;14.20;;;5.60;99.90;;;;;;5111522;28;20233;-67
2022/03/13 02:33:18;;;;;;;15.37;13.70;;;5.60;99.90;;;;;;5112226;27;20656;-67
2022/03/13 02:35:50;;;;;;;16.00;14.27;;;5.60;99.90;;;;;;5112336;28;20287;-67
2022/03/13 02:38:16;;;;;;;16.03;13.00;;;5.70;99.90;;;;;;5113354;27;20188;-67
2022/03/13 02:40:42;;;;;;;14.80;13.43;;;5.70;99.90;;;;;;5112273;28;20237;-67
2022/03/13 02:43:07;;;;;;;18.23;14.17;;;5.70;99.90;;;;;;5120083;27;20176;-67
2022/03/13 02:45:35;;;;;;;15.53;13.80;;;5.80;99.90;;;;;;5132038;27;20262;-67
2022/03/13 02:48:02;;;;;;;14.53;13.13;;;5.80;99.90;;;;;;5130947;27;20176;-67
2022/03/13 02:50:28;;;;;;;17.17;13.83;;;5.80;99.90;;;;;;5132014;27;20168;-67
2022/03/13 02:52:54;;;;;;;15.27;13.87;;;5.70;99.90;;;;;;5126320;27;20785;-67
2022/03/13 02:55:20;;;;;;;14.67;13.20;;;5.70;99.90;;;;;;5110588;28;20192;-67
2022/03/13 02:57:45;;;;;;;15.87;14.27;;;5.70;99.90;;;;;;5127735;27;20258;-67
2022/03/13 03:00:14;;;;;;;14.43;12.87;;;5.70;99.90;;;;;;5131635;27;20676;-67
2022/03/13 03:02:39;;;;;;;14.13;12.80;;;5.60;99.90;;;;;;5130984;27;20237;-67
2022/03/13 03:05:08;;;;;;;14.17;12.67;;;5.70;99.90;;;;;;5132236;27;20196;-67
2022/03/13 03:07:35;;;;;;;16.20;13.60;;;5.70;99.90;;;;;;5116516;27;20724;-67
2022/03/13 03:10:02;;;;;;;14.47;12.97;;;5.70;99.90;;;;;;5110654;28;20233;-67
2022/03/13 03:12:28;;;;;;;14.20;12.83;;;5.80;99.90;;;;;;5110420;28;20727;-67
2022/03/13 03:14:54;;;;;;;14.43;13.03;;;5.80;99.90;;;;;;5116749;28;20263;-67
2022/03/13 03:17:20;;;;;;;14.47;13.17;;;5.90;99.90;;;;;;5132094;27;20198;-67
2022/03/13 03:19:45;;;;;;;17.43;13.87;;;5.90;99.90;;;;;;5125477;27;20617;-67
2022/03/13 03:22:11;;;;;;;14.50;13.03;;;6.00;99.90;;;;;;5110447;28;20527;-67
2022/03/13 03:24:37;;;;;;;13.57;12.27;;;6.00;99.90;;;;;;5114133;27;20215;-67
2022/03/13 03:27:03;;;;;;;17.37;12.40;;;6.00;99.90;;;;;;5133634;27;20294;-67
2022/03/13 03:29:30;;;;;;;15.63;12.37;;;6.00;99.90;;;;;;5131787;27;20185;-67
2022/03/13 03:31:56;;;;;;;13.83;12.47;;;6.00;99.90;;;;;;5116050;28;20168;-67
2022/03/13 03:34:24;;;;;;;14.63;12.90;;;6.00;99.90;;;;;;5115986;27;20644;-67
2022/03/13 03:36:52;;;;;;;15.07;13.50;;;6.00;99.90;;;;;;5119573;27;20210;-67
2022/03/13 03:39:19;;;;;;;13.27;11.83;;;6.00;99.90;;;;;;5116986;27;20545;-67
2022/03/13 03:41:46;;;;;;;15.60;11.60;;;6.00;99.90;;;;;;5134976;27;20634;-67
2022/03/13 03:44:13;;;;;;;13.93;12.23;;;5.90;99.90;;;;;;5135100;27;20180;-67
2022/03/13 03:46:40;;;;;;;14.07;12.60;;;5.90;99.90;;;;;;5134496;27;20208;-67
2022/03/13 03:49:06;;;;;;;13.97;12.57;;;5.90;99.90;;;;;;5124987;27;20659;-67
2022/03/13 03:51:32;;;;;;;14.30;12.83;;;6.00;99.90;;;;;;5114883;27;20213;-67
2022/03/13 03:53:59;;;;;;;15.60;12.73;;;5.90;99.90;;;;;;5134625;27;20205;-67
2022/03/13 03:56:25;;;;;;;14.27;12.77;;;5.90;99.90;;;;;;5135342;27;20192;-67
2022/03/13 03:58:51;;;;;;;14.93;12.93;;;5.90;99.90;;;;;;5133159;27;20186;-66
2022/03/13 04:01:16;;;;;;;14.37;13.00;;;5.90;99.90;;;;;;5134320;27;20207;-66
2022/03/13 04:03:42;;;;;;;14.40;12.33;;;5.90;99.90;;;;;;5120451;27;20257;-66
2022/03/13 04:06:07;;;;;;;13.03;11.73;;;5.90;99.90;;;;;;5121264;27;20682;-67
2022/03/13 04:08:33;;;;;;;13.23;11.93;;;6.00;99.90;;;;;;5134491;27;20180;-67
2022/03/13 04:11:00;;;;;;;14.30;12.80;;;6.00;99.90;;;;;;5133915;27;20176;-67
2022/03/13 04:13:26;;;;;;;13.27;11.97;;;6.10;99.90;;;;;;5133842;27;20592;-67
2022/03/13 04:15:52;;;;;;;13.37;11.93;;;6.20;99.90;;;;;;5120166;27;20200;-67
2022/03/13 04:18:18;;;;;;;15.67;11.67;;;6.20;99.30;;;;;;5113691;28;20210;-67
2022/03/13 04:20:44;;;;;;;15.53;12.57;;;6.20;98.00;;;;;;5114761;27;20652;-67
2022/03/13 04:23:10;;;;;;;14.60;13.20;;;6.30;98.00;;;;;;5115071;28;20215;-67
2022/03/13 04:25:37;;;;;;;14.20;11.67;;;6.40;98.00;;;;;;5122122;27;20215;-67
2022/03/13 04:28:04;;;;;;;13.03;11.70;;;6.50;97.90;;;;;;5133688;27;20586;-67
2022/03/13 04:30:33;;;;;;;14.23;12.87;;;6.50;95.90;;;;;;5131950;27;20184;-67
2022/03/13 04:33:00;;;;;;;15.77;12.13;;;6.50;96.50;;;;;;5135297;27;20216;-67
2022/03/13 04:35:26;;;;;;;13.23;11.67;;;6.50;96.30;;;;;;5125597;27;20213;-66
2022/03/13 04:37:52;;;;;;;12.80;11.50;;;6.50;95.80;;;;;;5114736;28;20262;-67
2022/03/13 04:40:17;;;;;;;12.77;11.50;;;6.60;95.60;;;;;;5115656;27;20632;-66
2022/03/13 04:42:43;;;;;;;13.37;11.97;;;6.70;96.40;;;;;;5114474;28;20652;-66
2022/03/13 04:45:09;;;;;;;12.30;11.20;;;6.80;95.80;;;;;;5117837;27;20176;-66
2022/03/13 04:47:35;;;;;;;13.87;11.97;;;6.80;95.20;;;;;;5134889;27;20175;-67
2022/03/13 04:50:01;;;;;;;14.60;11.80;;;6.80;93.80;;;;;;5133000;27;20251;-67
2022/03/13 04:52:27;;;;;;;13.83;12.43;;;6.80;93.40;;;;;;5134867;27;20172;-66
2022/03/13 04:54:53;;;;;;;12.73;11.43;;;6.80;91.50;;;;;;5132465;27;20240;-67
2022/03/13 04:57:19;;;;;;;12.63;11.47;;;6.80;92.20;;;;;;5114340;28;20185;-66
2022/03/13 04:59:45;;;;;;;13.27;10.93;;;6.80;91.40;;;;;;5129768;27;20184;-67
2022/03/13 05:02:10;;;;;;;14.83;13.33;;;6.80;91.20;;;;;;5133066;27;20583;-66
2022/03/13 05:04:38;;;;;;;12.47;11.17;;;6.70;91.70;;;;;;5132494;27;20196;-66
2022/03/13 05:07:04;;;;;;;12.73;11.50;;;6.80;91.10;;;;;;5131834;27;20207;-67
2022/03/13 05:09:29;;;;;;;13.00;11.83;;;6.80;89.60;;;;;;5121818;27;20242;-67
2022/03/13 05:11:55;;;;;;;12.57;11.37;;;6.90;89.20;;;;;;5112645;28;20268;-67
2022/03/13 05:14:21;;;;;;;13.13;11.67;;;6.90;85.40;;;;;;5114989;27;20177;-66
2022/03/13 05:16:46;;;;;;;14.03;12.70;;;7.00;86.60;;;;;;5111708;28;20192;-66
2022/03/13 05:21:41;;;;;;;13.77;11.87;;;7.00;87.70;;;;;;5111261;28;20195;-63
2022/03/13 05:24:07;;;;;;;13.77;12.47;;;7.00;86.20;;;;;;5094869;28;20184;-64
2022/03/13 05:26:33;;;;;;;15.27;12.07;;;7.00;87.00;;;;;;5112612;28;20204;-64
2022/03/13 05:28:59;;;;;;;13.83;12.47;;;7.10;87.10;;;;;;5129530;27;20184;-64
2022/03/13 05:31:25;;;;;;;13.37;12.17;;;7.10;88.60;;;;;;5134296;27;20164;-64
2022/03/13 05:33:50;;;;;;;15.03;12.03;;;7.00;87.40;;;;;;5115205;27;20199;-65
2022/03/13 05:36:17;;;;;;;14.23;12.90;;;7.10;87.00;;;;;;5133787;27;20202;-64
2022/03/13 05:38:42;;;;;;;13.97;12.67;;;7.10;86.70;;;;;;5133859;27;20192;-64
2022/03/13 05:41:08;;;;;;;13.03;11.83;;;7.10;86.90;;;;;;5132386;27;20179;-64
2022/03/13 05:43:34;;;;;;;13.03;11.70;;;7.10;85.40;;;;;;5133745;27;20174;-64
2022/03/13 05:46:00;;;;;;;13.10;11.80;;;7.20;84.60;;;;;;5132550;27;20237;-64
2022/03/13 05:48:26;;;;;;;13.17;11.80;;;7.20;85.20;;;;;;5115299;27;20196;-64
2022/03/13 05:50:52;;;;;;;13.50;12.10;;;7.20;82.30;;;;;;5132830;27;20164;-64
2022/03/13 05:53:17;;;;;;;16.63;12.20;;;7.20;79.30;;;;;;5115047;27;20191;-64
2022/03/13 05:55:43;;;;;;;13.43;11.53;;;7.30;79.90;;;;;;5114943;27;20176;-64
2022/03/13 05:58:11;;;;;;;12.57;11.37;;;7.30;76.90;;;;;;5097895;27;20210;-64
2022/03/13 06:00:39;;;;;;;12.57;11.30;;;7.40;77.60;;;;;;5133567;27;20262;-64
2022/03/13 06:03:05;;;;;;;13.20;11.93;;;7.40;76.40;;;;;;5132062;27;20188;-64
2022/03/13 06:05:32;;;;;;;11.77;10.60;;;7.40;76.30;;;;;;5132371;27;20191;-64
2022/03/13 06:07:57;;;;;;;13.57;12.27;;;7.40;75.00;;;;;;5133270;27;20188;-64
2022/03/13 06:10:24;;;;;;;12.90;11.50;;;7.50;75.40;;;;;;5133347;27;20174;-64
2022/03/13 06:12:49;;;;;;;13.47;12.07;;;7.50;74.10;;;;;;5114867;27;20183;-64
2022/03/13 06:15:17;;;;;;;13.63;12.23;;;7.50;75.90;;;;;;5131309;27;20638;-64
2022/03/13 06:17:45;;;;;;;12.40;11.20;;;7.50;74.30;;;;;;5131913;27;20287;-64
2022/03/13 06:20:13;;;;;;;13.57;12.20;;;7.50;73.90;;;;;;5132833;27;20507;-64
2022/03/13 06:22:40;;;;;;;14.20;11.50;;;7.50;74.30;;;;;;5114389;27;20219;-64
2022/03/13 06:25:08;;;;;;;12.43;11.30;;;7.50;75.50;;;;;;5132670;27;20192;-64
2022/03/13 06:27:35;;;;;;;13.13;11.80;;;7.50;75.00;;;;;;5131882;27;20196;-64
2022/03/13 06:30:11;;;;;;;12.57;11.37;;;7.50;75.60;;;;;;5114614;27;20175;-64
2022/03/13 06:32:37;;;;;;;13.47;12.07;;;7.50;75.20;;;;;;5132973;27;20175;-64
2022/03/13 06:35:03;;;;;;;14.50;11.97;;;7.50;74.40;;;;;;5132548;27;20160;-64
2022/03/13 06:37:29;;;;;;;12.60;11.33;;;7.50;74.30;;;;;;5133220;27;20188;-64
2022/03/13 06:39:55;;;;;;;12.60;11.43;;;7.50;74.10;;;;;;5132047;27;20179;-64
2022/03/13 06:42:20;;;;;;;15.50;11.73;;;7.50;74.40;;;;;;5132144;27;20547;-63
2022/03/13 06:44:46;;;;;;;13.53;11.57;;;7.50;75.20;;;;;;5132342;27;20270;-64
2022/03/13 06:47:13;;;;;;;12.13;10.97;;;7.50;76.20;;;;;;5132102;27;20567;-64
2022/03/13 06:49:39;;;;;;;13.57;11.43;;;7.60;76.50;;;;;;5132476;27;20175;-63
2022/03/13 06:52:05;;;;;;;12.87;11.27;;;7.60;75.50;;;;;;5131175;27;20172;-63
2022/03/13 06:54:31;;;;;;;13.47;11.13;;;7.70;76.50;;;;;;5130392;27;20168;-63
2022/03/13 06:56:57;;;;;;;12.97;11.57;;;7.70;74.00;;;;;;5131476;27;20184;-63
2022/03/13 06:59:22;;;;;;;13.90;11.90;;;7.80;73.60;;;;;;5131030;27;20245;-64
2022/03/13 07:01:49;;;;;;;13.03;11.83;;;7.80;75.00;;;;;;5135287;27;20265;-63
2022/03/13 07:04:15;;;;;;;12.90;11.70;;;7.90;73.20;;;;;;5114074;28;20580;-63
2022/03/13 07:06:41;;;;;;;14.17;12.67;;;7.90;73.30;;;;;;5113364;27;20200;-63
2022/03/13 07:09:07;;;;;;;12.80;11.50;;;8.00;74.20;;;;;;5132453;27;20188;-63
2022/03/13 07:11:33;;;;;;;14.03;12.60;;;8.10;73.70;;;;;;5131868;27;20670;-63
2022/03/13 07:14:00;;;;;;;14.50;12.73;;;8.10;71.10;;;;;;5113966;28;20164;-63
2022/03/13 07:16:26;;;;;;;13.40;12.07;;;8.20;71.60;;;;;;5130839;27;20263;-63
2022/03/13 07:18:52;;;;;;;15.97;12.40;;;8.20;71.40;;;;;;5132274;28;20215;-63
2022/03/13 07:21:17;;;;;;;13.70;12.07;;;8.30;70.00;;;;;;5131810;28;20183;-63
2022/03/13 07:23:43;;;;;;;12.83;11.43;;;8.30;69.30;;;;;;5131900;28;20232;-63
2022/03/13 07:26:10;;;;;;;14.33;12.23;;;8.30;67.30;;;;;;5131471;28;20333;-63
2022/03/13 07:28:36;;;;;;;13.00;11.60;;;8.40;67.60;;;;;;5131892;28;20202;-64
2022/03/13 07:31:01;;;;;;;12.80;11.57;;;8.50;68.10;;;;;;5131884;27;20247;-63
2022/03/13 07:33:27;;;;;;;11.90;10.70;;;8.70;66.10;;;;;;5131039;28;20180;-62
2022/03/13 07:35:55;;;;;;;12.70;11.40;;;9.00;66.80;;;;;;5113513;28;20176;-62
2022/03/13 07:38:21;;;;;;;12.57;11.33;;;9.20;65.20;;;;;;5131670;27;20275;-63
2022/03/13 07:40:47;;;;;;;12.83;11.23;;;9.40;65.60;;;;;;5132005;28;20271;-63
2022/03/13 07:43:13;;;;;;;12.77;10.57;;;9.70;62.80;;;;;;5131589;28;20204;-63
2022/03/13 07:45:39;;;;;;;13.30;11.90;;;10.00;61.20;;;;;;5131627;28;20214;-63
2022/03/13 07:48:04;;;;;;;12.47;11.17;;;10.00;59.80;;;;;;5131575;28;20180;-63
2022/03/13 07:50:30;;;;;;;15.33;11.40;;;10.10;59.60;;;;;;5131909;27;20168;-64
2022/03/13 07:52:56;;;;;;;13.63;10.63;;;10.00;59.80;;;;;;5132076;27;20176;-64
2022/03/13 07:55:23;;;;;;;11.43;10.33;;;9.90;61.80;;;;;;5131324;28;20545;-64
2022/03/13 07:57:49;;;;;;;13.97;12.57;;;9.80;61.20;;;;;;5132062;27;20545;-64
2022/03/13 08:00:17;;;;;;;13.37;10.63;;;9.90;60.60;;;;;;5131352;27;20183;-64
2022/03/13 08:02:47;;;;;;;12.60;11.40;;;9.80;61.00;;;;;;5131707;27;20164;-64
2022/03/13 08:05:18;;;;;;;12.90;10.90;;;9.70;62.70;;;;;;5130738;27;20244;-64
2022/03/13 08:07:45;;;;;;;12.37;10.97;;;9.70;61.40;;;;;;5131506;28;20678;-64
2022/03/13 08:10:11;;;;;;;13.37;11.63;;;9.90;61.30;;;;;;5133577;27;20200;-63
2022/03/13 08:12:40;;;;;;;15.00;11.20;;;10.20;59.90;;;;;;5135588;27;20621;-64
2022/03/13 08:15:07;;;;;;;13.80;11.27;;;10.50;58.80;;;;;;5134759;27;20225;-64
2022/03/13 08:17:34;;;;;;;12.83;11.50;;;10.60;58.40;;;;;;5134913;27;20696;-64
2022/03/13 08:20:00;;;;;;;12.03;10.83;;;10.70;57.60;;;;;;5134706;27;20689;-64
2022/03/13 08:22:26;;;;;;;12.67;11.50;;;10.70;58.00;;;;;;5134902;27;20164;-64
2022/03/13 08:24:51;;;;;;;11.63;10.53;;;10.60;57.60;;;;;;5134787;27;20259;-63
2022/03/13 08:27:17;;;;;;;12.63;10.93;;;10.50;56.20;;;;;;5134885;27;20204;-64
2022/03/13 08:29:44;;;;;;;12.60;11.30;;;10.30;56.80;;;;;;5134957;27;20179;-64
2022/03/13 08:32:10;;;;;;;14.30;10.50;;;10.20;57.50;;;;;;5134548;27;20195;-64
2022/03/13 08:34:37;;;;;;;12.27;11.07;;;10.10;57.40;;;;;;5134099;27;20263;-64
2022/03/13 08:37:04;;;;;;;12.57;11.37;;;10.20;57.80;;;;;;5134512;27;20172;-63
2022/03/13 08:39:30;;;;;;;12.73;10.63;;;10.30;57.30;;;;;;5115587;27;20196;-64
2022/03/13 08:41:55;;;;;;;12.73;11.33;;;10.40;56.70;;;;;;5137007;27;20688;-64
2022/03/13 08:44:21;;;;;;;11.73;10.53;;;10.90;57.50;;;;;;5140790;27;20262;-63
2022/03/13 08:46:47;;;;;;;12.13;10.73;;;11.40;56.20;;;;;;5135113;27;20227;-64
2022/03/13 08:49:14;;;;;;;12.23;10.23;;;11.80;56.50;;;;;;5134408;27;20213;-64
2022/03/13 08:51:40;;;;;;;11.00;9.70;;;12.30;56.20;;;;;;5134357;27;20186;-64
2022/03/13 08:54:06;;;;;;;12.07;10.87;;;12.40;55.30;;;;;;5134795;27;20240;-64
2022/03/13 08:56:31;;;;;;;12.10;10.83;;;12.40;54.80;;;;;;5134306;27;20176;-64
2022/03/13 08:58:57;;;;;;;15.50;11.57;;;12.20;54.70;;;;;;5134491;27;20286;-64
2022/03/13 09:01:24;;;;;;;11.77;10.57;;;12.00;55.30;;;;;;5134592;27;20176;-64
2022/03/13 09:03:50;;;;;;;12.90;11.60;;;11.90;55.40;;;;;;5134311;27;20646;-64
2022/03/13 09:06:16;;;;;;;12.70;11.40;;;11.60;54.80;;;;;;5134010;27;20329;-64
2022/03/13 09:08:42;;;;;;;14.37;11.10;;;11.50;55.20;;;;;;5134292;27;20203;-64
2022/03/13 09:11:08;;;;;;;17.67;11.97;;;11.30;55.40;;;;;;5134716;27;20171;-64
2022/03/13 09:13:33;;;;;;;13.00;10.67;;;11.20;55.80;;;;;;5133633;27;20184;-63
2022/03/13 09:15:59;;;;;;;13.37;11.27;;;11.00;55.20;;;;;;5133989;27;20278;-64
2022/03/13 09:18:24;;;;;;;13.23;11.40;;;11.00;56.20;;;;;;5133943;27;20228;-63
2022/03/13 09:20:50;;;;;;;13.00;11.70;;;11.10;56.70;;;;;;5133783;27;20233;-64
2022/03/13 09:23:16;;;;;;;12.87;11.50;;;11.10;56.50;;;;;;5133726;27;20176;-64
2022/03/13 09:25:41;;;;;;;12.90;11.60;;;11.10;57.50;;;;;;5133382;27;20596;-64
2022/03/13 09:28:07;;;;;;;12.20;10.90;;;11.20;58.00;;;;;;5133896;27;20213;-64
2022/03/13 09:30:33;;;;;;;14.07;11.80;;;11.20;57.10;;;;;;5133368;27;20182;-64
2022/03/13 09:32:59;;;;;;;12.90;11.60;;;11.20;58.20;;;;;;5133407;27;20168;-64
2022/03/13 09:35:24;;;;;;;15.43;12.30;;;11.10;56.30;;;;;;5132611;27;20179;-64
2022/03/13 09:37:50;;;;;;;12.77;11.47;;;11.10;56.10;;;;;;5133639;27;20662;-64
2022/03/13 09:40:18;;;;;;;13.53;12.13;;;11.20;57.10;;;;;;5133348;27;20168;-64
2022/03/13 09:42:44;;;;;;;14.37;11.23;;;11.30;56.70;;;;;;5133853;27;20634;-64
2022/03/13 09:45:12;;;;;;;13.37;11.60;;;11.50;56.00;;;;;;5113821;27;20179;-64
2022/03/13 09:47:40;;;;;;;14.07;12.57;;;11.70;55.80;;;;;;5133638;27;20200;-64
2022/03/13 09:50:08;;;;;;;13.77;11.47;;;11.90;56.60;;;;;;5133746;27;20630;-64
2022/03/13 09:52:36;;;;;;;13.03;11.37;;;12.10;55.90;;;;;;5133144;27;20658;-64
2022/03/13 09:55:02;;;;;;;12.90;11.07;;;12.20;56.00;;;;;;5133468;27;20171;-63
2022/03/13 09:57:28;;;;;;;12.13;10.70;;;12.50;55.80;;;;;;5133336;27;20200;-63
2022/03/13 09:59:54;;;;;;;13.20;10.43;;;13.20;55.30;;;;;;5133604;27;20190;-64
2022/03/13 10:02:20;;;;;;;13.10;11.90;;;13.80;55.40;;;;;;5132313;27;20251;-63
2022/03/13 10:04:45;;;;;;;12.40;11.20;;;14.20;53.50;;;;;;5132610;27;20184;-64
2022/03/13 10:07:13;;;;;;;12.30;10.73;;;14.70;54.00;;;;;;5133088;27;20210;-64
2022/03/13 10:09:41;;;;;;;12.07;10.87;;;14.70;52.90;;;;;;5133342;27;20192;-65
2022/03/13 10:12:12;;;;;;;14.03;11.40;;;14.90;52.80;;;;;;5133392;27;20521;-64
2022/03/13 10:14:58;;;;;;;11.87;10.67;;;15.20;54.20;;;;;;5132662;27;20172;-64
2022/03/13 10:17:28;;;;;;;13.13;10.90;;;15.70;53.90;;;;;;5111830;28;20189;-65
2022/03/13 10:20:09;;;;;;;14.27;11.07;;;15.90;53.10;;;;;;5112407;28;20679;-64
2022/03/13 10:22:35;;;;;;;12.37;11.13;;;16.10;54.60;;;;;;5112907;28;20639;-64
2022/03/13 10:25:01;;;;;;;11.70;10.57;;;16.40;53.90;;;;;;5112026;27;20176;-64
2022/03/13 10:27:26;;;;;;;12.57;11.13;;;16.50;53.40;;;;;;5132255;27;20225;-64
2022/03/13 10:29:52;;;;;;;12.07;10.90;;;16.50;53.40;;;;;;5132660;27;20164;-64
2022/03/13 10:32:20;;;;;;;12.47;11.17;;;16.70;54.60;;;;;;5132186;27;20183;-64
2022/03/13 10:34:57;;;;;;;11.73;10.50;;;17.10;54.40;;;;;;5114015;27;20180;-64
2022/03/13 10:37:50;;;;;;;12.82;11.05;;;17.70;53.30;;;;;;5132389;27;20702;-64
2022/03/13 10:40:22;;;;;;;14.40;12.77;;;18.00;54.10;;;;;;5132500;27;20194;-65
2022/03/13 10:42:50;;;;;;;13.13;11.40;;;18.20;54.30;;;;;;5132915;27;20168;-65
2022/03/13 10:45:39;;;;;;;13.10;10.95;;;18.10;51.90;;;;;;5131299;27;20733;-65
2022/03/13 10:48:20;;;;;;;12.00;10.63;;;17.80;53.50;;;;;;5132135;27;20566;-64
2022/03/13 10:50:47;;;;;;;13.93;12.20;;;17.90;52.50;;;;;;5131962;27;20539;-65
2022/03/13 10:53:14;;;;;;;13.10;11.80;;;18.10;53.50;;;;;;5132435;27;20641;-65
2022/03/13 10:55:43;;;;;;;14.70;12.00;;;18.20;53.10;;;;;;5132063;27;20184;-65
2022/03/13 10:58:08;;;;;;;12.23;10.93;;;18.40;51.60;;;;;;5132503;27;20590;-65
2022/03/13 11:00:35;;;;;;;15.60;12.27;;;18.40;52.60;;;;;;5132223;27;20171;-65
2022/03/13 11:03:12;;;;;;;14.32;12.35;;;18.40;54.10;;;;;;5114122;27;20228;-65
2022/03/13 11:05:38;;;;;;;13.60;12.05;;;18.40;54.00;;;;;;5131713;27;20217;-65
2022/03/13 11:08:04;;;;;;;14.07;12.50;;;18.50;54.00;;;;;;5132383;27;20187;-64
2022/03/13 11:10:30;;;;;;;13.57;12.17;;;18.60;54.70;;;;;;5132422;27;20172;-65
2022/03/13 11:12:57;;;;;;;14.10;11.57;;;18.80;54.00;;;;;;5132179;27;20186;-65
2022/03/13 11:15:31;;;;;;;14.25;11.82;;;18.80;54.90;;;;;;5132177;27;20172;-65
2022/03/13 11:17:58;;;;;;;14.05;12.55;;;18.90;55.50;;;;;;5131923;28;20199;-65
2022/03/13 11:21:36;;;;;;;15.75;13.00;;;19.10;54.10;;;;;;5139444;22;20650;-89
2022/03/13 11:28:08;;;;;;;15.90;11.90;;;19.40;54.80;;;;;;5118351;28;20222;-90
2022/03/13 11:31:33;;;;;;;12.93;11.63;;;19.60;54.70;;;;;;5067095;28;20188;-89
2022/03/13 12:51:47;;;;;;;14.02;12.50;;;20.20;53.90;;;;;;5159905;22;20228;-66
2022/03/13 12:54:22;;;;;;;13.02;10.93;;;19.80;54.10;;;;;;5133542;27;20639;-67
2022/03/13 12:56:55;;;;;;;13.20;11.60;;;20.00;54.70;;;;;;5133066;27;20564;-66
2022/03/13 12:59:36;;;;;;;14.80;11.20;;;20.30;55.10;;;;;;5134207;27;20179;-66
2022/03/13 13:02:05;;;;;;;13.15;11.68;;;20.50;54.50;;;;;;5114002;28;20203;-66
2022/03/13 13:04:32;;;;;;;12.68;11.38;;;20.70;56.10;;;;;;5113582;28;20583;-66
2022/03/13 13:06:58;;;;;;;13.02;11.68;;;20.70;55.20;;;;;;5113977;28;20172;-66
2022/03/13 13:09:33;;;;;;;16.40;11.63;;;20.80;56.30;;;;;;5113241;28;20268;-66
2022/03/13 13:11:59;;;;;;;13.80;11.40;;;20.80;55.90;;;;;;5095548;28;20691;-66
2022/03/13 13:14:26;;;;;;;13.25;10.93;;;21.00;54.90;;;;;;5094963;28;20204;-66
2022/03/13 13:16:57;;;;;;;12.73;11.38;;;20.90;54.40;;;;;;5095439;28;20287;-67
2022/03/13 13:19:23;;;;;;;12.57;10.80;;;20.70;54.00;;;;;;5094990;28;20642;-66
2022/03/13 13:22:00;;;;;;;12.57;11.05;;;20.10;53.90;;;;;;5113447;28;20275;-66
2022/03/13 13:24:35;;;;;;;12.40;11.10;;;19.20;53.70;;;;;;5113889;28;20233;-66
2022/03/13 13:27:06;;;;;;;14.57;12.10;;;18.90;54.90;;;;;;5112183;28;20211;-66
2022/03/13 13:29:36;;;;;;;12.73;11.35;;;19.00;55.90;;;;;;5113571;28;20725;-66
2022/03/13 13:32:24;;;;;;;13.45;11.27;;;19.20;55.80;;;;;;5113443;28;20184;-66
2022/03/13 13:35:11;;;;;;;13.00;11.20;;;19.60;56.20;;;;;;5112931;28;20183;-66
2022/03/13 13:37:57;;;;;;;13.13;10.80;;;19.90;54.60;;;;;;5113329;28;20220;-66
2022/03/13 13:40:24;;;;;;;12.82;11.55;;;20.30;55.10;;;;;;5113354;28;20195;-66
2022/03/13 13:42:57;;;;;;;11.57;10.43;;;20.50;55.50;;;;;;5113307;28;20229;-67
2022/03/13 13:45:22;;;;;;;11.38;10.18;;;20.60;55.00;;;;;;5112895;28;20165;-66
2022/03/13 13:47:49;;;;;;;12.77;10.80;;;20.40;54.80;;;;;;5112910;28;20176;-66
2022/03/13 13:50:21;;;;;;;12.02;10.82;;;20.10;54.50;;;;;;5111566;28;20207;-65
2022/03/13 13:53:02;;;;;;;13.05;10.88;;;20.10;55.00;;;;;;5112472;28;20192;-64
2022/03/13 13:55:37;;;;;;;13.15;11.15;;;20.40;56.00;;;;;;5112326;28;20582;-64
2022/03/13 13:58:22;;;;;;;12.10;10.73;;;20.60;55.70;;;;;;5112311;28;20195;-66
2022/03/13 14:00:48;;;;;;;11.57;10.15;;;20.70;55.00;;;;;;5110648;28;20197;-67